sensor_id;sensor_type;location;lat;lon;timestamp;P1;durP1;ratioP1;P2;durP2;ratioP2
39094;SDS011;24840;47.508;19.376;2024-01-30T00:01:30;7.70;;;4.20;;
39094;SDS011;24840;47.508;19.376;2024-01-30T00:03:56;8.63;;;3.87;;
39094;SDS011;24840;47.508;19.376;2024-01-30T00:06:22;8.87;;;4.33;;
39094;SDS011;24840;47.508;19.376;2024-01-30T00:08:49;8.50;;;5.00;;
39094;SDS011;24840;47.508;19.376;2024-01-30T00:11:15;8.10;;;5.23;;
39094;SDS011;24840;47.508;19.376;2024-01-30T00:13:41;6.40;;;4.43;;
39094;SDS011;24840;47.508;19.376;2024-01-30T00:16:07;8.00;;;5.10;;
39094;SDS011;24840;47.508;19.376;2024-01-30T00:18:34;9.17;;;4.10;;
39094;SDS011;24840;47.508;19.376;2024-01-30T00:21:00;8.87;;;5.00;;
39094;SDS011;24840;47.508;19.376;2024-01-30T00:23:26;7.10;;;4.33;;
39094;SDS011;24840;47.508;19.376;2024-01-30T00:25:52;8.57;;;3.97;;
39094;SDS011;24840;47.508;19.376;2024-01-30T00:28:18;7.83;;;4.20;;
39094;SDS011;24840;47.508;19.376;2024-01-30T00:30:44;6.60;;;4.70;;
39094;SDS011;24840;47.508;19.376;2024-01-30T00:33:10;9.03;;;5.20;;
39094;SDS011;24840;47.508;19.376;2024-01-30T00:35:36;7.37;;;5.10;;
39094;SDS011;24840;47.508;19.376;2024-01-30T00:38:02;8.03;;;5.10;;
39094;SDS011;24840;47.508;19.376;2024-01-30T00:40:28;7.33;;;4.33;;
39094;SDS011;24840;47.508;19.376;2024-01-30T00:42:55;10.27;;;4.93;;
39094;SDS011;24840;47.508;19.376;2024-01-30T00:45:21;8.50;;;5.53;;
39094;SDS011;24840;47.508;19.376;2024-01-30T00:47:47;8.50;;;5.33;;
39094;SDS011;24840;47.508;19.376;2024-01-30T00:50:13;7.83;;;4.53;;
39094;SDS011;24840;47.508;19.376;2024-01-30T00:52:40;9.03;;;5.07;;
39094;SDS011;24840;47.508;19.376;2024-01-30T00:55:06;7.07;;;5.20;;
39094;SDS011;24840;47.508;19.376;2024-01-30T00:57:32;8.30;;;4.57;;
39094;SDS011;24840;47.508;19.376;2024-01-30T00:59:58;7.57;;;4.60;;
39094;SDS011;24840;47.508;19.376;2024-01-30T01:02:24;7.00;;;4.60;;
39094;SDS011;24840;47.508;19.376;2024-01-30T01:04:50;10.03;;;5.30;;
39094;SDS011;24840;47.508;19.376;2024-01-30T01:07:17;8.70;;;5.13;;
39094;SDS011;24840;47.508;19.376;2024-01-30T01:09:43;10.73;;;4.97;;
39094;SDS011;24840;47.508;19.376;2024-01-30T01:12:09;8.13;;;4.80;;
39094;SDS011;24840;47.508;19.376;2024-01-30T01:14:36;9.87;;;7.20;;
39094;SDS011;24840;47.508;19.376;2024-01-30T01:17:02;8.23;;;5.80;;
39094;SDS011;24840;47.508;19.376;2024-01-30T01:19:28;10.57;;;6.07;;
39094;SDS011;24840;47.508;19.376;2024-01-30T01:21:54;8.60;;;5.47;;
39094;SDS011;24840;47.508;19.376;2024-01-30T01:24:20;7.03;;;4.87;;
39094;SDS011;24840;47.508;19.376;2024-01-30T01:26:46;10.70;;;4.77;;
39094;SDS011;24840;47.508;19.376;2024-01-30T01:29:12;11.40;;;6.37;;
39094;SDS011;24840;47.508;19.376;2024-01-30T01:31:38;8.00;;;5.30;;
39094;SDS011;24840;47.508;19.376;2024-01-30T01:34:09;10.87;;;6.27;;
39094;SDS011;24840;47.508;19.376;2024-01-30T01:36:35;10.17;;;5.77;;
39094;SDS011;24840;47.508;19.376;2024-01-30T01:39:01;10.93;;;6.40;;
39094;SDS011;24840;47.508;19.376;2024-01-30T01:41:31;8.73;;;5.40;;
39094;SDS011;24840;47.508;19.376;2024-01-30T01:43:58;8.97;;;5.63;;
39094;SDS011;24840;47.508;19.376;2024-01-30T01:46:26;14.60;;;7.13;;
39094;SDS011;24840;47.508;19.376;2024-01-30T01:48:52;10.20;;;5.37;;
39094;SDS011;24840;47.508;19.376;2024-01-30T01:51:18;8.73;;;6.10;;
39094;SDS011;24840;47.508;19.376;2024-01-30T01:53:44;10.77;;;6.20;;
39094;SDS011;24840;47.508;19.376;2024-01-30T01:56:10;10.70;;;5.17;;
39094;SDS011;24840;47.508;19.376;2024-01-30T01:58:36;8.67;;;5.17;;
39094;SDS011;24840;47.508;19.376;2024-01-30T02:01:03;11.43;;;5.53;;
39094;SDS011;24840;47.508;19.376;2024-01-30T02:03:30;8.60;;;5.73;;
39094;SDS011;24840;47.508;19.376;2024-01-30T02:05:56;9.77;;;6.30;;
39094;SDS011;24840;47.508;19.376;2024-01-30T02:08:23;10.07;;;5.27;;
39094;SDS011;24840;47.508;19.376;2024-01-30T02:10:49;13.77;;;7.17;;
39094;SDS011;24840;47.508;19.376;2024-01-30T02:13:16;11.73;;;5.97;;
39094;SDS011;24840;47.508;19.376;2024-01-30T02:15:42;11.20;;;6.67;;
39094;SDS011;24840;47.508;19.376;2024-01-30T02:18:08;11.00;;;6.30;;
39094;SDS011;24840;47.508;19.376;2024-01-30T02:20:34;13.97;;;7.50;;
39094;SDS011;24840;47.508;19.376;2024-01-30T02:23:00;19.17;;;11.37;;
39094;SDS011;24840;47.508;19.376;2024-01-30T02:25:31;22.30;;;13.27;;
39094;SDS011;24840;47.508;19.376;2024-01-30T02:27:57;24.20;;;13.73;;
39094;SDS011;24840;47.508;19.376;2024-01-30T02:30:23;19.60;;;12.03;;
39094;SDS011;24840;47.508;19.376;2024-01-30T02:32:49;18.93;;;11.80;;
39094;SDS011;24840;47.508;19.376;2024-01-30T02:35:16;21.63;;;12.60;;
39094;SDS011;24840;47.508;19.376;2024-01-30T02:37:42;15.17;;;11.47;;
39094;SDS011;24840;47.508;19.376;2024-01-30T02:40:08;19.30;;;11.77;;
39094;SDS011;24840;47.508;19.376;2024-01-30T02:42:34;25.90;;;11.80;;
39094;SDS011;24840;47.508;19.376;2024-01-30T02:45:00;17.83;;;9.63;;
39094;SDS011;24840;47.508;19.376;2024-01-30T02:47:26;16.37;;;9.03;;
39094;SDS011;24840;47.508;19.376;2024-01-30T02:49:52;13.43;;;9.10;;
39094;SDS011;24840;47.508;19.376;2024-01-30T02:52:18;14.70;;;8.73;;
39094;SDS011;24840;47.508;19.376;2024-01-30T02:54:45;15.73;;;8.47;;
39094;SDS011;24840;47.508;19.376;2024-01-30T02:57:11;10.67;;;7.07;;
39094;SDS011;24840;47.508;19.376;2024-01-30T02:59:38;10.10;;;6.90;;
39094;SDS011;24840;47.508;19.376;2024-01-30T03:02:04;9.57;;;6.53;;
39094;SDS011;24840;47.508;19.376;2024-01-30T03:04:30;11.37;;;7.80;;
39094;SDS011;24840;47.508;19.376;2024-01-30T03:06:56;12.13;;;8.23;;
39094;SDS011;24840;47.508;19.376;2024-01-30T03:09:24;10.40;;;7.57;;
39094;SDS011;24840;47.508;19.376;2024-01-30T03:11:50;13.27;;;7.10;;
39094;SDS011;24840;47.508;19.376;2024-01-30T03:14:16;11.87;;;7.43;;
39094;SDS011;24840;47.508;19.376;2024-01-30T03:16:42;14.27;;;7.93;;
39094;SDS011;24840;47.508;19.376;2024-01-30T03:19:08;10.30;;;7.43;;
39094;SDS011;24840;47.508;19.376;2024-01-30T03:21:34;13.17;;;7.33;;
39094;SDS011;24840;47.508;19.376;2024-01-30T03:24:00;12.00;;;6.13;;
39094;SDS011;24840;47.508;19.376;2024-01-30T03:26:26;11.80;;;6.73;;
39094;SDS011;24840;47.508;19.376;2024-01-30T03:28:52;10.93;;;6.27;;
39094;SDS011;24840;47.508;19.376;2024-01-30T03:31:18;8.70;;;5.30;;
39094;SDS011;24840;47.508;19.376;2024-01-30T03:33:44;12.10;;;7.00;;
39094;SDS011;24840;47.508;19.376;2024-01-30T03:36:10;10.43;;;7.27;;
39094;SDS011;24840;47.508;19.376;2024-01-30T03:38:36;10.60;;;7.03;;
39094;SDS011;24840;47.508;19.376;2024-01-30T03:41:02;10.30;;;6.30;;
39094;SDS011;24840;47.508;19.376;2024-01-30T03:43:28;12.97;;;7.00;;
39094;SDS011;24840;47.508;19.376;2024-01-30T03:45:54;11.87;;;6.00;;
39094;SDS011;24840;47.508;19.376;2024-01-30T03:48:21;10.57;;;6.57;;
39094;SDS011;24840;47.508;19.376;2024-01-30T03:50:47;7.13;;;5.30;;
39094;SDS011;24840;47.508;19.376;2024-01-30T03:53:13;14.63;;;7.73;;
39094;SDS011;24840;47.508;19.376;2024-01-30T03:55:39;13.70;;;7.30;;
39094;SDS011;24840;47.508;19.376;2024-01-30T03:58:05;11.17;;;7.60;;
39094;SDS011;24840;47.508;19.376;2024-01-30T04:00:31;9.77;;;6.00;;
39094;SDS011;24840;47.508;19.376;2024-01-30T04:02:57;14.03;;;7.37;;
39094;SDS011;24840;47.508;19.376;2024-01-30T04:05:23;13.13;;;7.67;;
39094;SDS011;24840;47.508;19.376;2024-01-30T04:07:49;16.73;;;7.87;;
39094;SDS011;24840;47.508;19.376;2024-01-30T04:10:15;14.03;;;8.47;;
39094;SDS011;24840;47.508;19.376;2024-01-30T04:12:41;17.80;;;9.53;;
39094;SDS011;24840;47.508;19.376;2024-01-30T04:15:07;10.67;;;6.77;;
39094;SDS011;24840;47.508;19.376;2024-01-30T04:17:33;15.13;;;7.83;;
39094;SDS011;24840;47.508;19.376;2024-01-30T04:19:59;10.60;;;7.80;;
39094;SDS011;24840;47.508;19.376;2024-01-30T04:22:25;13.90;;;8.03;;
39094;SDS011;24840;47.508;19.376;2024-01-30T04:24:51;12.77;;;8.13;;
39094;SDS011;24840;47.508;19.376;2024-01-30T04:27:17;13.57;;;8.27;;
39094;SDS011;24840;47.508;19.376;2024-01-30T04:29:43;12.83;;;7.80;;
39094;SDS011;24840;47.508;19.376;2024-01-30T04:32:09;15.47;;;8.23;;
39094;SDS011;24840;47.508;19.376;2024-01-30T04:34:36;12.83;;;7.60;;
39094;SDS011;24840;47.508;19.376;2024-01-30T04:37:02;12.63;;;8.40;;
39094;SDS011;24840;47.508;19.376;2024-01-30T04:39:28;13.30;;;8.77;;
39094;SDS011;24840;47.508;19.376;2024-01-30T04:41:54;14.10;;;8.73;;
39094;SDS011;24840;47.508;19.376;2024-01-30T04:44:20;11.87;;;6.33;;
39094;SDS011;24840;47.508;19.376;2024-01-30T04:46:46;9.23;;;6.77;;
39094;SDS011;24840;47.508;19.376;2024-01-30T04:49:12;12.33;;;7.93;;
39094;SDS011;24840;47.508;19.376;2024-01-30T04:51:38;15.87;;;9.23;;
39094;SDS011;24840;47.508;19.376;2024-01-30T04:54:04;17.60;;;9.60;;
39094;SDS011;24840;47.508;19.376;2024-01-30T04:56:30;16.00;;;9.70;;
39094;SDS011;24840;47.508;19.376;2024-01-30T04:58:56;21.27;;;11.00;;
39094;SDS011;24840;47.508;19.376;2024-01-30T05:01:22;19.40;;;11.33;;
39094;SDS011;24840;47.508;19.376;2024-01-30T05:03:48;21.40;;;11.10;;
39094;SDS011;24840;47.508;19.376;2024-01-30T05:06:23;25.60;;;12.77;;
39094;SDS011;24840;47.508;19.376;2024-01-30T05:08:49;20.63;;;11.73;;
39094;SDS011;24840;47.508;19.376;2024-01-30T05:11:15;42.73;;;20.23;;
39094;SDS011;24840;47.508;19.376;2024-01-30T05:13:41;21.43;;;9.37;;
39094;SDS011;24840;47.508;19.376;2024-01-30T05:16:07;13.60;;;8.43;;
39094;SDS011;24840;47.508;19.376;2024-01-30T05:18:33;13.03;;;7.50;;
39094;SDS011;24840;47.508;19.376;2024-01-30T05:20:59;16.83;;;9.00;;
39094;SDS011;24840;47.508;19.376;2024-01-30T05:23:25;15.00;;;8.67;;
39094;SDS011;24840;47.508;19.376;2024-01-30T05:25:51;14.20;;;7.63;;
39094;SDS011;24840;47.508;19.376;2024-01-30T05:28:17;11.97;;;7.27;;
39094;SDS011;24840;47.508;19.376;2024-01-30T05:30:43;15.17;;;9.20;;
39094;SDS011;24840;47.508;19.376;2024-01-30T05:33:09;15.73;;;9.60;;
39094;SDS011;24840;47.508;19.376;2024-01-30T05:35:37;16.77;;;10.60;;
39094;SDS011;24840;47.508;19.376;2024-01-30T05:38:03;18.97;;;12.37;;
39094;SDS011;24840;47.508;19.376;2024-01-30T05:40:29;16.87;;;10.10;;
39094;SDS011;24840;47.508;19.376;2024-01-30T05:42:56;19.43;;;12.17;;
39094;SDS011;24840;47.508;19.376;2024-01-30T05:45:25;23.93;;;12.47;;
39094;SDS011;24840;47.508;19.376;2024-01-30T05:47:54;23.43;;;11.93;;
39094;SDS011;24840;47.508;19.376;2024-01-30T05:50:20;16.27;;;11.03;;
39094;SDS011;24840;47.508;19.376;2024-01-30T05:52:48;20.53;;;11.60;;
39094;SDS011;24840;47.508;19.376;2024-01-30T05:55:14;17.20;;;10.53;;
39094;SDS011;24840;47.508;19.376;2024-01-30T05:57:41;18.80;;;12.03;;
39094;SDS011;24840;47.508;19.376;2024-01-30T06:00:07;20.70;;;12.07;;
39094;SDS011;24840;47.508;19.376;2024-01-30T06:02:33;51.97;;;25.83;;
39094;SDS011;24840;47.508;19.376;2024-01-30T06:04:59;48.03;;;25.27;;
39094;SDS011;24840;47.508;19.376;2024-01-30T06:07:25;34.07;;;17.60;;
39094;SDS011;24840;47.508;19.376;2024-01-30T06:09:51;18.70;;;11.93;;
39094;SDS011;24840;47.508;19.376;2024-01-30T06:12:19;23.47;;;12.40;;
39094;SDS011;24840;47.508;19.376;2024-01-30T06:14:45;27.17;;;15.73;;
39094;SDS011;24840;47.508;19.376;2024-01-30T06:17:12;20.73;;;13.30;;
39094;SDS011;24840;47.508;19.376;2024-01-30T06:19:39;21.27;;;13.70;;
39094;SDS011;24840;47.508;19.376;2024-01-30T06:22:06;21.03;;;12.93;;
39094;SDS011;24840;47.508;19.376;2024-01-30T06:24:32;33.03;;;18.47;;
39094;SDS011;24840;47.508;19.376;2024-01-30T06:26:59;56.27;;;27.83;;
39094;SDS011;24840;47.508;19.376;2024-01-30T06:29:26;21.67;;;14.07;;
39094;SDS011;24840;47.508;19.376;2024-01-30T06:31:52;24.07;;;12.97;;
39094;SDS011;24840;47.508;19.376;2024-01-30T06:34:18;142.47;;;58.30;;
39094;SDS011;24840;47.508;19.376;2024-01-30T06:36:44;231.20;;;90.10;;
39094;SDS011;24840;47.508;19.376;2024-01-30T06:39:10;97.40;;;43.53;;
39094;SDS011;24840;47.508;19.376;2024-01-30T06:41:36;61.77;;;29.60;;
39094;SDS011;24840;47.508;19.376;2024-01-30T06:44:02;103.57;;;42.27;;
39094;SDS011;24840;47.508;19.376;2024-01-30T06:46:33;140.27;;;48.03;;
39094;SDS011;24840;47.508;19.376;2024-01-30T06:48:59;448.37;;;140.83;;
39094;SDS011;24840;47.508;19.376;2024-01-30T06:51:25;186.53;;;66.57;;
39094;SDS011;24840;47.508;19.376;2024-01-30T06:53:51;47.17;;;24.73;;
39094;SDS011;24840;47.508;19.376;2024-01-30T06:56:17;53.33;;;28.77;;
39094;SDS011;24840;47.508;19.376;2024-01-30T06:58:49;56.87;;;26.27;;
39094;SDS011;24840;47.508;19.376;2024-01-30T07:01:15;29.57;;;15.20;;
39094;SDS011;24840;47.508;19.376;2024-01-30T07:03:42;19.37;;;11.67;;
39094;SDS011;24840;47.508;19.376;2024-01-30T07:06:08;17.70;;;11.87;;
39094;SDS011;24840;47.508;19.376;2024-01-30T07:08:35;25.97;;;13.47;;
39094;SDS011;24840;47.508;19.376;2024-01-30T07:11:03;17.83;;;11.70;;
39094;SDS011;24840;47.508;19.376;2024-01-30T07:13:29;20.83;;;12.03;;
39094;SDS011;24840;47.508;19.376;2024-01-30T07:15:55;19.57;;;11.77;;
39094;SDS011;24840;47.508;19.376;2024-01-30T07:18:21;18.07;;;12.07;;
39094;SDS011;24840;47.508;19.376;2024-01-30T07:20:47;21.47;;;12.20;;
39094;SDS011;24840;47.508;19.376;2024-01-30T07:23:14;16.93;;;10.83;;
39094;SDS011;24840;47.508;19.376;2024-01-30T07:25:45;21.97;;;11.90;;
39094;SDS011;24840;47.508;19.376;2024-01-30T07:28:14;41.73;;;13.13;;
39094;SDS011;24840;47.508;19.376;2024-01-30T07:30:43;27.67;;;13.57;;
39094;SDS011;24840;47.508;19.376;2024-01-30T07:33:09;28.07;;;13.53;;
39094;SDS011;24840;47.508;19.376;2024-01-30T07:35:36;22.40;;;13.90;;
39094;SDS011;24840;47.508;19.376;2024-01-30T07:38:02;23.07;;;15.03;;
39094;SDS011;24840;47.508;19.376;2024-01-30T07:40:28;30.30;;;15.20;;
39094;SDS011;24840;47.508;19.376;2024-01-30T07:42:55;26.67;;;14.77;;
39094;SDS011;24840;47.508;19.376;2024-01-30T07:45:21;30.20;;;17.27;;
39094;SDS011;24840;47.508;19.376;2024-01-30T07:47:49;29.93;;;16.53;;
39094;SDS011;24840;47.508;19.376;2024-01-30T07:50:16;26.50;;;18.00;;
39094;SDS011;24840;47.508;19.376;2024-01-30T07:52:42;37.83;;;13.93;;
39094;SDS011;24840;47.508;19.376;2024-01-30T07:57:54;22.70;;;15.00;;
39094;SDS011;24840;47.508;19.376;2024-01-30T08:00:20;25.07;;;13.97;;
39094;SDS011;24840;47.508;19.376;2024-01-30T08:02:47;26.43;;;17.27;;
39094;SDS011;24840;47.508;19.376;2024-01-30T08:05:13;25.63;;;15.97;;
39094;SDS011;24840;47.508;19.376;2024-01-30T08:07:40;25.33;;;15.57;;
39094;SDS011;24840;47.508;19.376;2024-01-30T08:10:07;25.10;;;15.87;;
39094;SDS011;24840;47.508;19.376;2024-01-30T08:12:33;21.00;;;13.00;;
39094;SDS011;24840;47.508;19.376;2024-01-30T08:14:59;36.77;;;17.07;;
39094;SDS011;24840;47.508;19.376;2024-01-30T08:17:25;27.00;;;16.03;;
39094;SDS011;24840;47.508;19.376;2024-01-30T08:19:51;23.27;;;15.47;;
39094;SDS011;24840;47.508;19.376;2024-01-30T08:22:17;22.10;;;14.10;;
39094;SDS011;24840;47.508;19.376;2024-01-30T08:24:43;34.63;;;21.10;;
39094;SDS011;24840;47.508;19.376;2024-01-30T08:27:10;33.50;;;17.90;;
39094;SDS011;24840;47.508;19.376;2024-01-30T08:29:37;39.87;;;24.67;;
39094;SDS011;24840;47.508;19.376;2024-01-30T08:32:04;49.03;;;30.17;;
39094;SDS011;24840;47.508;19.376;2024-01-30T08:34:30;58.47;;;33.57;;
39094;SDS011;24840;47.508;19.376;2024-01-30T08:36:56;42.90;;;26.47;;
39094;SDS011;24840;47.508;19.376;2024-01-30T08:39:22;54.23;;;31.67;;
39094;SDS011;24840;47.508;19.376;2024-01-30T08:41:48;44.87;;;27.53;;
39094;SDS011;24840;47.508;19.376;2024-01-30T08:44:15;59.93;;;34.37;;
39094;SDS011;24840;47.508;19.376;2024-01-30T08:46:42;68.20;;;39.13;;
39094;SDS011;24840;47.508;19.376;2024-01-30T08:49:08;64.30;;;38.97;;
39094;SDS011;24840;47.508;19.376;2024-01-30T08:51:34;57.90;;;38.97;;
39094;SDS011;24840;47.508;19.376;2024-01-30T08:54:01;62.00;;;42.77;;
39094;SDS011;24840;47.508;19.376;2024-01-30T08:56:27;51.07;;;35.87;;
39094;SDS011;24840;47.508;19.376;2024-01-30T08:58:53;60.33;;;36.87;;
39094;SDS011;24840;47.508;19.376;2024-01-30T09:01:19;51.20;;;33.77;;
39094;SDS011;24840;47.508;19.376;2024-01-30T09:03:45;47.17;;;29.10;;
39094;SDS011;24840;47.508;19.376;2024-01-30T09:06:11;45.93;;;31.20;;
39094;SDS011;24840;47.508;19.376;2024-01-30T09:33:32;21.17;;;14.80;;
39094;SDS011;24840;47.508;19.376;2024-01-30T09:35:58;34.87;;;18.23;;
39094;SDS011;24840;47.508;19.376;2024-01-30T09:38:24;26.67;;;19.07;;
39094;SDS011;24840;47.508;19.376;2024-01-30T09:40:53;23.43;;;16.63;;
39094;SDS011;24840;47.508;19.376;2024-01-30T09:43:22;17.47;;;13.23;;
39094;SDS011;24840;47.508;19.376;2024-01-30T09:45:49;18.83;;;12.47;;
39094;SDS011;24840;47.508;19.376;2024-01-30T09:48:16;17.73;;;11.87;;
39094;SDS011;24840;47.508;19.376;2024-01-30T09:50:42;16.60;;;11.33;;
39094;SDS011;24840;47.508;19.376;2024-01-30T09:53:08;19.17;;;12.27;;
39094;SDS011;24840;47.508;19.376;2024-01-30T09:55:35;20.63;;;13.10;;
39094;SDS011;24840;47.508;19.376;2024-01-30T09:58:01;19.80;;;14.00;;
39094;SDS011;24840;47.508;19.376;2024-01-30T10:00:27;21.47;;;12.63;;
39094;SDS011;24840;47.508;19.376;2024-01-30T10:02:53;20.80;;;12.57;;
39094;SDS011;24840;47.508;19.376;2024-01-30T10:05:19;17.23;;;11.97;;
39094;SDS011;24840;47.508;19.376;2024-01-30T10:07:55;15.80;;;10.93;;
39094;SDS011;24840;47.508;19.376;2024-01-30T10:10:21;17.73;;;11.90;;
39094;SDS011;24840;47.508;19.376;2024-01-30T10:12:48;23.13;;;13.47;;
39094;SDS011;24840;47.508;19.376;2024-01-30T10:15:14;18.53;;;12.07;;
39094;SDS011;24840;47.508;19.376;2024-01-30T10:17:40;15.97;;;10.83;;
39094;SDS011;24840;47.508;19.376;2024-01-30T10:20:06;19.07;;;13.87;;
39094;SDS011;24840;47.508;19.376;2024-01-30T10:22:33;20.27;;;13.67;;
39094;SDS011;24840;47.508;19.376;2024-01-30T10:24:59;17.37;;;11.40;;
39094;SDS011;24840;47.508;19.376;2024-01-30T10:27:26;17.67;;;12.60;;
39094;SDS011;24840;47.508;19.376;2024-01-30T10:29:52;19.02;;;12.65;;
39094;SDS011;24840;47.508;19.376;2024-01-30T10:32:19;21.60;;;12.50;;
39094;SDS011;24840;47.508;19.376;2024-01-30T10:34:46;16.03;;;11.60;;
39094;SDS011;24840;47.508;19.376;2024-01-30T10:37:12;18.53;;;12.53;;
39094;SDS011;24840;47.508;19.376;2024-01-30T10:39:40;15.98;;;10.98;;
39094;SDS011;24840;47.508;19.376;2024-01-30T10:42:11;16.85;;;9.63;;
39094;SDS011;24840;47.508;19.376;2024-01-30T10:44:56;14.93;;;11.45;;
39094;SDS011;24840;47.508;19.376;2024-01-30T10:47:26;14.67;;;10.37;;
39094;SDS011;24840;47.508;19.376;2024-01-30T10:49:52;15.07;;;11.00;;
39094;SDS011;24840;47.508;19.376;2024-01-30T10:52:19;13.65;;;10.93;;
39094;SDS011;24840;47.508;19.376;2024-01-30T10:54:46;18.10;;;11.80;;
39094;SDS011;24840;47.508;19.376;2024-01-30T10:57:12;18.15;;;11.50;;
39094;SDS011;24840;47.508;19.376;2024-01-30T10:59:39;15.05;;;11.18;;
39094;SDS011;24840;47.508;19.376;2024-01-30T11:02:05;21.80;;;11.88;;
39094;SDS011;24840;47.508;19.376;2024-01-30T11:04:38;38.28;;;20.80;;
39094;SDS011;24840;47.508;19.376;2024-01-30T11:09:31;17.35;;;11.23;;
39094;SDS011;24840;47.508;19.376;2024-01-30T11:12:02;16.10;;;11.38;;
39094;SDS011;24840;47.508;19.376;2024-01-30T11:14:31;18.92;;;11.98;;
39094;SDS011;24840;47.508;19.376;2024-01-30T11:16:58;19.80;;;13.10;;
39094;SDS011;24840;47.508;19.376;2024-01-30T11:19:25;16.05;;;10.98;;
39094;SDS011;24840;47.508;19.376;2024-01-30T11:21:51;17.08;;;11.35;;
39094;SDS011;24840;47.508;19.376;2024-01-30T11:24:19;16.42;;;11.85;;
39094;SDS011;24840;47.508;19.376;2024-01-30T11:26:47;16.85;;;12.70;;
39094;SDS011;24840;47.508;19.376;2024-01-30T11:29:14;19.88;;;12.45;;
39094;SDS011;24840;47.508;19.376;2024-01-30T11:31:50;24.65;;;13.40;;
39094;SDS011;24840;47.508;19.376;2024-01-30T11:34:17;20.13;;;13.25;;
39094;SDS011;24840;47.508;19.376;2024-01-30T11:36:43;21.80;;;13.88;;
39094;SDS011;24840;47.508;19.376;2024-01-30T11:39:11;25.23;;;15.43;;
39094;SDS011;24840;47.508;19.376;2024-01-30T11:41:37;17.90;;;13.57;;
39094;SDS011;24840;47.508;19.376;2024-01-30T11:44:04;16.33;;;10.98;;
39094;SDS011;24840;47.508;19.376;2024-01-30T11:46:30;13.98;;;10.43;;
39094;SDS011;24840;47.508;19.376;2024-01-30T11:48:56;17.00;;;11.63;;
39094;SDS011;24840;47.508;19.376;2024-01-30T11:51:22;14.23;;;10.77;;
39094;SDS011;24840;47.508;19.376;2024-01-30T11:53:51;16.23;;;11.70;;
39094;SDS011;24840;47.508;19.376;2024-01-30T11:56:17;17.88;;;11.40;;
39094;SDS011;24840;47.508;19.376;2024-01-30T11:58:43;16.40;;;10.82;;
39094;SDS011;24840;47.508;19.376;2024-01-30T12:01:10;21.60;;;12.70;;
39094;SDS011;24840;47.508;19.376;2024-01-30T12:03:36;19.50;;;13.13;;
39094;SDS011;24840;47.508;19.376;2024-01-30T12:06:02;15.35;;;11.50;;
39094;SDS011;24840;47.508;19.376;2024-01-30T12:08:28;18.15;;;13.48;;
39094;SDS011;24840;47.508;19.376;2024-01-30T12:10:55;15.93;;;11.88;;
39094;SDS011;24840;47.508;19.376;2024-01-30T12:13:22;20.10;;;12.95;;
39094;SDS011;24840;47.508;19.376;2024-01-30T12:15:48;16.60;;;11.88;;
39094;SDS011;24840;47.508;19.376;2024-01-30T12:18:14;16.85;;;13.27;;
39094;SDS011;24840;47.508;19.376;2024-01-30T12:20:40;15.18;;;11.63;;
39094;SDS011;24840;47.508;19.376;2024-01-30T12:23:06;16.00;;;11.85;;
39094;SDS011;24840;47.508;19.376;2024-01-30T12:25:32;17.52;;;13.73;;
39094;SDS011;24840;47.508;19.376;2024-01-30T12:27:58;19.45;;;13.63;;
39094;SDS011;24840;47.508;19.376;2024-01-30T12:30:24;18.73;;;13.55;;
39094;SDS011;24840;47.508;19.376;2024-01-30T12:32:50;25.27;;;14.98;;
39094;SDS011;24840;47.508;19.376;2024-01-30T12:35:17;17.08;;;14.10;;
39094;SDS011;24840;47.508;19.376;2024-01-30T12:37:43;19.83;;;14.02;;
39094;SDS011;24840;47.508;19.376;2024-01-30T12:40:10;20.30;;;14.13;;
39094;SDS011;24840;47.508;19.376;2024-01-30T12:42:38;18.70;;;13.77;;
39094;SDS011;24840;47.508;19.376;2024-01-30T12:45:04;17.38;;;12.43;;
39094;SDS011;24840;47.508;19.376;2024-01-30T12:47:31;19.13;;;13.00;;
39094;SDS011;24840;47.508;19.376;2024-01-30T12:49:57;18.67;;;12.40;;
39094;SDS011;24840;47.508;19.376;2024-01-30T12:52:23;16.30;;;11.57;;
39094;SDS011;24840;47.508;19.376;2024-01-30T12:54:49;15.82;;;11.60;;
39094;SDS011;24840;47.508;19.376;2024-01-30T12:57:16;13.85;;;10.13;;
39094;SDS011;24840;47.508;19.376;2024-01-30T12:59:42;14.10;;;10.98;;
39094;SDS011;24840;47.508;19.376;2024-01-30T13:02:09;17.40;;;11.93;;
39094;SDS011;24840;47.508;19.376;2024-01-30T13:04:35;14.57;;;11.75;;
39094;SDS011;24840;47.508;19.376;2024-01-30T13:07:01;16.00;;;11.23;;
39094;SDS011;24840;47.508;19.376;2024-01-30T13:09:29;19.13;;;13.23;;
39094;SDS011;24840;47.508;19.376;2024-01-30T13:11:55;21.63;;;14.30;;
39094;SDS011;24840;47.508;19.376;2024-01-30T13:14:21;21.27;;;13.30;;
39094;SDS011;24840;47.508;19.376;2024-01-30T13:16:47;18.75;;;13.60;;
39094;SDS011;24840;47.508;19.376;2024-01-30T13:19:13;20.70;;;14.00;;
39094;SDS011;24840;47.508;19.376;2024-01-30T13:21:39;17.13;;;12.68;;
39094;SDS011;24840;47.508;19.376;2024-01-30T13:24:05;19.83;;;12.55;;
39094;SDS011;24840;47.508;19.376;2024-01-30T13:26:32;19.45;;;13.27;;
39094;SDS011;24840;47.508;19.376;2024-01-30T13:28:58;15.93;;;12.45;;
39094;SDS011;24840;47.508;19.376;2024-01-30T13:31:24;17.85;;;13.73;;
39094;SDS011;24840;47.508;19.376;2024-01-30T13:33:50;17.63;;;12.70;;
39094;SDS011;24840;47.508;19.376;2024-01-30T13:36:16;16.38;;;11.68;;
39094;SDS011;24840;47.508;19.376;2024-01-30T13:38:42;16.83;;;11.38;;
39094;SDS011;24840;47.508;19.376;2024-01-30T13:41:08;17.67;;;12.25;;
39094;SDS011;24840;47.508;19.376;2024-01-30T13:43:34;18.70;;;12.25;;
39094;SDS011;24840;47.508;19.376;2024-01-30T13:46:00;18.15;;;12.52;;
39094;SDS011;24840;47.508;19.376;2024-01-30T13:48:26;17.70;;;11.73;;
39094;SDS011;24840;47.508;19.376;2024-01-30T13:50:53;17.58;;;12.18;;
39094;SDS011;24840;47.508;19.376;2024-01-30T13:53:19;21.75;;;15.50;;
39094;SDS011;24840;47.508;19.376;2024-01-30T13:55:45;18.10;;;12.27;;
39094;SDS011;24840;47.508;19.376;2024-01-30T13:58:12;15.95;;;11.60;;
39094;SDS011;24840;47.508;19.376;2024-01-30T14:00:38;18.48;;;11.98;;
39094;SDS011;24840;47.508;19.376;2024-01-30T14:03:04;19.17;;;13.00;;
39094;SDS011;24840;47.508;19.376;2024-01-30T14:05:30;16.08;;;11.15;;
39094;SDS011;24840;47.508;19.376;2024-01-30T14:07:57;30.10;;;16.15;;
39094;SDS011;24840;47.508;19.376;2024-01-30T14:10:23;18.55;;;11.85;;
39094;SDS011;24840;47.508;19.376;2024-01-30T14:12:49;13.23;;;10.20;;
39094;SDS011;24840;47.508;19.376;2024-01-30T14:15:15;15.10;;;10.30;;
39094;SDS011;24840;47.508;19.376;2024-01-30T14:17:44;18.42;;;12.10;;
39094;SDS011;24840;47.508;19.376;2024-01-30T14:20:12;16.80;;;11.40;;
39094;SDS011;24840;47.508;19.376;2024-01-30T14:22:38;37.85;;;21.05;;
39094;SDS011;24840;47.508;19.376;2024-01-30T14:25:04;18.30;;;12.60;;
39094;SDS011;24840;47.508;19.376;2024-01-30T14:27:31;16.98;;;11.10;;
39094;SDS011;24840;47.508;19.376;2024-01-30T14:29:57;22.98;;;13.98;;
39094;SDS011;24840;47.508;19.376;2024-01-30T14:32:23;26.73;;;16.33;;
39094;SDS011;24840;47.508;19.376;2024-01-30T14:34:50;39.72;;;23.75;;
39094;SDS011;24840;47.508;19.376;2024-01-30T14:37:17;27.98;;;18.45;;
39094;SDS011;24840;47.508;19.376;2024-01-30T14:39:43;31.27;;;18.33;;